createdAt,value
2018-09-12T00:00:33.620Z,2.24
2018-09-12T00:01:08.755Z,4.40
2018-09-12T00:01:44.267Z,4.56
2018-09-12T00:02:20.719Z,4.48
2018-09-12T00:02:56.118Z,3.52
2018-09-12T00:03:31.668Z,4.16
2018-09-12T00:04:06.804Z,1.92
2018-09-12T00:04:42.510Z,2.24
2018-09-12T00:05:17.726Z,4.64
2018-09-12T00:05:52.952Z,2.32
2018-09-12T00:06:28.204Z,2.24
2018-09-12T00:07:03.856Z,2.24
2018-09-12T00:07:39.486Z,2.24
2018-09-12T00:08:14.825Z,4.16
2018-09-12T00:08:50.230Z,3.04
2018-09-12T00:09:25.783Z,3.76
2018-09-12T00:10:01.112Z,4.64
2018-09-12T00:10:36.457Z,2.72
2018-09-12T00:11:11.873Z,2.64
2018-09-12T00:11:47.226Z,3.12
2018-09-12T00:12:22.552Z,4.88
2018-09-12T00:12:57.959Z,2.48
2018-09-12T00:13:33.409Z,4.16
2018-09-12T00:14:08.512Z,1.44
2018-09-12T00:14:44.160Z,3.20
2018-09-12T00:15:19.517Z,2.72
2018-09-12T00:15:55.031Z,2.72
2018-09-12T00:16:30.238Z,2.72
2018-09-12T00:17:05.634Z,2.08
2018-09-12T00:17:41.061Z,4.48
2018-09-12T00:18:17.008Z,1.44
2018-09-12T00:18:52.664Z,3.60
2018-09-12T00:19:27.721Z,4.48
2018-09-12T00:20:02.968Z,4.40
2018-09-12T00:20:38.090Z,2.40
2018-09-12T00:21:13.469Z,3.44
2018-09-12T00:21:49.016Z,4.16
2018-09-12T00:22:24.871Z,4.08
2018-09-12T00:23:00.412Z,4.08
2018-09-12T00:23:35.848Z,3.36
2018-09-12T00:24:11.216Z,6.16
2018-09-12T00:24:46.446Z,5.28
2018-09-12T00:25:21.917Z,1.76
2018-09-12T00:25:57.249Z,2.80
2018-09-12T00:26:32.569Z,3.28
2018-09-12T00:27:07.901Z,4.00
2018-09-12T00:27:43.347Z,3.20
2018-09-12T00:28:18.894Z,3.20
2018-09-12T00:28:54.116Z,4.08
2018-09-12T00:29:29.566Z,3.28
2018-09-12T00:30:04.817Z,2.08
2018-09-12T00:30:40.405Z,2.88
2018-09-12T00:31:16.002Z,2.32
2018-09-12T00:31:51.431Z,2.48
2018-09-12T00:32:26.559Z,2.08
2018-09-12T00:33:01.873Z,2.88
2018-09-12T00:33:37.398Z,4.80
2018-09-12T00:34:12.529Z,3.36
2018-09-12T00:34:48.064Z,6.40
2018-09-12T00:35:23.384Z,3.76
2018-09-12T00:35:58.729Z,4.96
2018-09-12T00:36:34.288Z,6.72
2018-09-12T00:37:09.494Z,2.80
2018-09-12T00:37:44.846Z,1.52
2018-09-12T00:38:19.879Z,2.00
2018-09-12T00:38:55.200Z,2.88
2018-09-12T00:39:30.326Z,2.56
2018-09-12T00:40:05.923Z,3.60
2018-09-12T00:40:41.364Z,1.36
2018-09-12T00:41:16.708Z,2.56
2018-09-12T00:41:52.019Z,2.08
2018-09-12T00:42:27.425Z,2.64
2018-09-12T00:43:02.759Z,3.04
2018-09-12T00:43:37.989Z,2.80
2018-09-12T00:44:13.288Z,2.64
2018-09-12T00:44:48.729Z,4.16
2018-09-12T00:45:23.963Z,2.48
2018-09-12T00:45:59.189Z,3.60
2018-09-12T00:46:34.642Z,3.12
2018-09-12T00:47:10.171Z,3.84
2018-09-12T00:47:45.386Z,3.04
2018-09-12T00:48:20.835Z,1.84
2018-09-12T00:48:56.152Z,4.40
2018-09-12T00:49:31.091Z,5.60
2018-09-12T00:50:06.282Z,4.24
2018-09-12T00:50:41.864Z,3.68
2018-09-12T00:51:17.044Z,2.00
2018-09-12T00:51:52.398Z,2.56
2018-09-12T00:52:27.726Z,3.12
2018-09-12T00:53:03.221Z,2.40
2018-09-12T00:53:38.549Z,2.24
2018-09-12T00:54:13.937Z,1.84
2018-09-12T00:54:49.477Z,2.48
2018-09-12T00:55:24.811Z,3.44
2018-09-12T00:56:00.438Z,4.00
2018-09-12T00:56:35.770Z,3.92
2018-09-12T00:57:11.200Z,6.64
2018-09-12T00:57:46.837Z,7.44
2018-09-12T00:58:22.270Z,2.32
2018-09-12T00:58:57.862Z,4.48
2018-09-12T00:59:33.088Z,3.44
2018-09-12T01:00:08.493Z,7.52
2018-09-12T01:00:43.810Z,8.00
2018-09-12T01:01:19.229Z,5.20
2018-09-12T01:01:54.963Z,3.20
2018-09-12T01:02:30.429Z,3.28
2018-09-12T01:03:05.829Z,6.08
2018-09-12T01:03:40.868Z,3.04
2018-09-12T01:04:16.356Z,4.80
2018-09-12T01:04:51.811Z,4.56
2018-09-12T01:05:27.268Z,6.32
2018-09-12T01:06:02.668Z,10.08
2018-09-12T01:06:38.019Z,8.48
2018-09-12T01:07:13.656Z,3.20
2018-09-12T01:07:49.148Z,8.88
2018-09-12T01:08:24.601Z,5.28
2018-09-12T01:08:59.920Z,6.24
2018-09-12T01:09:35.461Z,2.56
2018-09-12T01:10:10.779Z,2.40
2018-09-12T01:10:46.204Z,3.76
2018-09-12T01:11:21.810Z,2.64
2018-09-12T01:11:56.934Z,3.44
2018-09-12T01:12:32.448Z,2.72
2018-09-12T01:13:07.812Z,4.80
2018-09-12T01:13:43.476Z,5.92
2018-09-12T01:14:18.762Z,3.20
2018-09-12T01:14:53.888Z,3.04
2018-09-12T01:15:29.221Z,3.28
2018-09-12T01:16:04.428Z,3.20
2018-09-12T01:16:39.865Z,2.64
2018-09-12T01:17:15.077Z,5.20
2018-09-12T01:17:50.696Z,5.28
2018-09-12T01:18:25.876Z,2.72
2018-09-12T01:19:01.298Z,2.16
2018-09-12T01:19:36.728Z,2.96
2018-09-12T01:20:12.159Z,1.36
2018-09-12T01:20:47.575Z,2.16
2018-09-12T01:21:22.942Z,3.76
2018-09-12T01:21:58.538Z,2.64
2018-09-12T01:22:34.081Z,4.80
2018-09-12T01:23:09.411Z,6.40
2018-09-12T01:23:45.000Z,4.40
2018-09-12T01:24:20.504Z,6.24
2018-09-12T01:24:55.860Z,4.08
2018-09-12T01:25:31.201Z,3.28
2018-09-12T01:26:06.621Z,5.68
2018-09-12T01:26:41.973Z,5.76
2018-09-12T01:27:17.315Z,6.08
2018-09-12T01:27:52.453Z,5.68
2018-09-12T01:28:27.985Z,6.72
2018-09-12T01:29:03.441Z,5.52
2018-09-12T01:29:38.703Z,4.24
2018-09-12T01:30:14.078Z,6.64
2018-09-12T01:30:49.306Z,3.28
2018-09-12T01:31:25.041Z,3.52
2018-09-12T01:32:00.342Z,4.08
2018-09-12T01:32:36.092Z,7.52
2018-09-12T01:33:11.799Z,4.88
2018-09-12T01:33:47.651Z,3.92
2018-09-12T01:34:22.985Z,3.76
2018-09-12T01:34:58.204Z,3.12
2018-09-12T01:35:33.537Z,5.44
2018-09-12T01:36:08.764Z,8.24
2018-09-12T01:36:44.223Z,4.32
2018-09-12T01:37:19.740Z,5.60
2018-09-12T01:37:55.367Z,6.88
2018-09-12T01:38:30.631Z,3.12
2018-09-12T01:39:06.340Z,7.60
2018-09-12T01:39:41.814Z,5.68
2018-09-12T01:40:17.326Z,4.96
2018-09-12T01:40:52.757Z,2.96
2018-09-12T01:41:28.279Z,6.16
2018-09-12T01:42:03.708Z,4.56
2018-09-12T01:42:39.029Z,6.00
2018-09-12T01:43:14.379Z,3.12
2018-09-12T01:43:49.804Z,2.88
2018-09-12T01:44:24.835Z,3.68
2018-09-12T01:45:00.299Z,0.72
2018-09-12T01:45:35.501Z,2.40
2018-09-12T01:46:10.756Z,2.16
2018-09-12T01:46:46.104Z,7.28
2018-09-12T01:47:21.914Z,10.40
2018-09-12T01:47:57.538Z,6.08
2018-09-12T01:48:33.370Z,3.44
2018-09-12T01:49:08.404Z,6.88
2018-09-12T01:49:43.737Z,2.72
2018-09-12T01:50:19.083Z,4.56
2018-09-12T01:50:54.341Z,5.12
2018-09-12T01:51:29.855Z,8.88
2018-09-12T01:52:05.482Z,4.48
2018-09-12T01:52:40.683Z,5.84
2018-09-12T01:53:16.013Z,3.20
2018-09-12T01:53:51.331Z,6.48
2018-09-12T01:54:26.472Z,4.32
2018-09-12T01:55:01.922Z,4.00
2018-09-12T01:55:37.337Z,3.76
2018-09-12T01:56:12.663Z,1.76
2018-09-12T01:56:48.612Z,1.60
2018-09-12T01:57:24.210Z,1.44
2018-09-12T01:57:59.749Z,1.28
2018-09-12T01:58:35.061Z,2.96
2018-09-12T01:59:10.418Z,3.60
2018-09-12T01:59:45.856Z,5.12
2018-09-12T02:00:21.288Z,4.72
2018-09-12T02:00:57.251Z,4.32
2018-09-12T02:01:32.637Z,5.36
2018-09-12T02:02:07.976Z,3.68
2018-09-12T02:02:43.078Z,4.24
2018-09-12T02:03:18.336Z,1.52
2018-09-12T02:03:53.472Z,2.40
2018-09-12T02:04:29.176Z,1.76
2018-09-12T02:05:04.728Z,1.36
2018-09-12T02:05:40.752Z,0.56
2018-09-12T02:06:16.454Z,1.28
2018-09-12T02:06:51.611Z,3.36
2018-09-12T02:07:26.622Z,7.28
2018-09-12T02:08:01.935Z,3.84
2018-09-12T02:08:37.035Z,2.40
2018-09-12T02:09:12.460Z,4.00
2018-09-12T02:09:47.704Z,2.08
2018-09-12T02:10:23.135Z,2.64
2018-09-12T02:10:58.464Z,4.80
2018-09-12T02:11:34.306Z,5.12
2018-09-12T02:12:09.624Z,3.68
2018-09-12T02:12:44.966Z,2.00
2018-09-12T02:13:20.372Z,4.24
2018-09-12T02:13:55.630Z,5.36
2018-09-12T02:14:30.736Z,5.20
2018-09-12T02:15:06.087Z,5.20
2018-09-12T02:15:41.696Z,7.20
2018-09-12T02:16:16.948Z,6.40
2018-09-12T02:16:52.318Z,6.96
2018-09-12T02:17:27.633Z,4.08
2018-09-12T02:18:02.834Z,3.36
2018-09-12T02:18:38.145Z,6.80
2018-09-12T02:19:13.659Z,5.92
2018-09-12T02:19:48.911Z,6.88
2018-09-12T02:20:24.150Z,2.32
2018-09-12T02:20:59.499Z,0.96
2018-09-12T02:21:34.505Z,6.16
2018-09-12T02:22:10.386Z,3.04
2018-09-12T02:22:45.961Z,2.64
2018-09-12T02:23:21.381Z,1.12
2018-09-12T02:23:56.610Z,0.96
2018-09-12T02:24:31.812Z,2.40
2018-09-12T02:25:07.276Z,2.32
2018-09-12T02:25:42.923Z,4.08
2018-09-12T02:26:18.242Z,3.36
2018-09-12T02:26:53.677Z,11.93
2018-09-12T02:27:29.108Z,11.21
2018-09-12T02:28:04.624Z,8.56
2018-09-12T02:28:41.973Z,6.32
2018-09-12T02:29:17.302Z,4.00
2018-09-12T02:29:52.619Z,3.36
2018-09-12T02:30:28.193Z,1.68
2018-09-12T02:31:03.663Z,1.84
2018-09-12T02:31:38.965Z,2.72
2018-09-12T02:32:14.202Z,4.48
2018-09-12T02:32:49.623Z,4.64
2018-09-12T02:33:25.045Z,3.76
2018-09-12T02:34:00.897Z,3.92
2018-09-12T02:34:36.129Z,6.96
2018-09-12T02:35:11.469Z,4.56
2018-09-12T02:35:46.607Z,4.64
2018-09-12T02:36:22.269Z,7.68
2018-09-12T02:36:57.574Z,4.96
2018-09-12T02:37:32.806Z,3.92
2018-09-12T02:38:08.530Z,4.48
2018-09-12T02:38:44.429Z,6.00
2018-09-12T02:39:19.757Z,5.52
2018-09-12T02:39:55.099Z,4.88
2018-09-12T02:40:30.703Z,3.44
2018-09-12T02:41:06.236Z,9.60
2018-09-12T02:41:41.428Z,5.20
2018-09-12T02:42:17.091Z,2.96
2018-09-12T02:42:52.430Z,5.20
2018-09-12T02:43:27.690Z,4.80
2018-09-12T02:44:03.216Z,4.00
2018-09-12T02:44:38.520Z,3.52
2018-09-12T02:45:14.250Z,3.44
2018-09-12T02:45:49.565Z,1.92
2018-09-12T02:46:24.692Z,4.32
2018-09-12T02:47:00.211Z,6.80
2018-09-12T02:47:35.799Z,4.72
2018-09-12T02:48:11.029Z,7.28
2018-09-12T02:48:46.564Z,4.88
2018-09-12T02:49:21.995Z,6.56
2018-09-12T02:49:57.451Z,4.72
2018-09-12T02:50:32.781Z,6.56
2018-09-12T02:51:08.120Z,7.44
2018-09-12T02:51:43.625Z,3.28
2018-09-12T02:52:19.048Z,4.40
2018-09-12T02:52:54.282Z,7.68
2018-09-12T02:53:29.899Z,5.60
2018-09-12T02:54:05.456Z,1.60
2018-09-12T02:54:40.577Z,4.56
2018-09-12T02:55:16.123Z,3.52
2018-09-12T02:55:51.638Z,5.68
2018-09-12T02:56:27.095Z,5.76
2018-09-12T02:57:02.429Z,9.28
2018-09-12T02:57:37.634Z,13.77
2018-09-12T02:58:12.963Z,8.80
2018-09-12T02:58:48.283Z,5.76
2018-09-12T02:59:23.734Z,5.12
2018-09-12T02:59:59.086Z,3.20
2018-09-12T03:00:34.426Z,4.16
2018-09-12T03:01:09.862Z,2.56
2018-09-12T03:01:45.057Z,6.16
2018-09-12T03:02:20.283Z,6.72
2018-09-12T03:02:55.496Z,8.40
2018-09-12T03:03:30.701Z,3.92
2018-09-12T03:04:06.468Z,6.32
2018-09-12T03:04:41.998Z,2.32
2018-09-12T03:05:17.548Z,5.20
2018-09-12T03:05:52.639Z,3.84
2018-09-12T03:06:28.262Z,2.40
2018-09-12T03:07:03.808Z,6.00
2018-09-12T03:07:39.527Z,6.56
2018-09-12T03:08:14.951Z,4.32
2018-09-12T03:08:50.466Z,1.92
2018-09-12T03:09:25.903Z,14.49
2018-09-12T03:10:01.363Z,10.57
2018-09-12T03:10:36.766Z,7.04
2018-09-12T03:11:12.220Z,6.88
2018-09-12T03:11:47.533Z,4.88
2018-09-12T03:12:22.888Z,10.65
2018-09-12T03:12:58.434Z,6.64
2018-09-12T03:13:33.757Z,3.36
2018-09-12T03:14:09.018Z,5.04
2018-09-12T03:14:44.270Z,5.20
2018-09-12T03:15:19.799Z,3.44
2018-09-12T03:15:55.218Z,2.80
2018-09-12T03:16:30.654Z,1.28
2018-09-12T03:17:06.100Z,0.72
2018-09-12T03:17:41.614Z,1.68
2018-09-12T03:18:16.836Z,3.04
2018-09-12T03:18:52.556Z,3.36
2018-09-12T03:19:27.891Z,4.88
2018-09-12T03:20:03.306Z,6.16
2018-09-12T03:20:38.735Z,4.96
2018-09-12T03:21:13.997Z,2.00
2018-09-12T03:21:49.429Z,6.00
2018-09-12T03:22:24.842Z,7.52
2018-09-12T03:23:00.160Z,4.48
2018-09-12T03:23:35.422Z,3.36
2018-09-12T03:24:10.667Z,1.12
2018-09-12T03:24:46.244Z,2.64
2018-09-12T03:25:21.783Z,1.68
2018-09-12T03:25:57.311Z,1.44
2018-09-12T03:26:32.734Z,7.36
2018-09-12T03:27:07.954Z,6.88
2018-09-12T03:27:43.353Z,6.48
2018-09-12T03:28:18.686Z,5.20
2018-09-12T03:28:53.949Z,2.16
2018-09-12T03:29:29.068Z,2.64
2018-09-12T03:30:04.310Z,3.84
2018-09-12T03:30:39.796Z,2.48
2018-09-12T03:31:14.944Z,4.32
2018-09-12T03:31:50.279Z,2.88
2018-09-12T03:32:25.624Z,2.24
2018-09-12T03:33:01.332Z,5.76
2018-09-12T03:33:36.684Z,6.40
2018-09-12T03:34:12.051Z,4.24
2018-09-12T03:34:47.386Z,2.64
2018-09-12T03:35:22.642Z,2.32
2018-09-12T03:35:57.971Z,3.60
2018-09-12T03:36:33.280Z,1.52
2018-09-12T03:37:08.712Z,3.36
2018-09-12T03:37:43.921Z,5.36
2018-09-12T03:38:19.352Z,4.72
2018-09-12T03:38:54.873Z,7.12
2018-09-12T03:39:30.330Z,5.20
2018-09-12T03:40:05.807Z,5.36
2018-09-12T03:40:41.362Z,5.36
2018-09-12T03:41:16.996Z,4.32
2018-09-12T03:41:52.520Z,6.64
2018-09-12T03:42:27.673Z,8.56
2018-09-12T03:43:02.789Z,10.00
2018-09-12T03:43:38.326Z,3.52
2018-09-12T03:44:13.804Z,1.20
2018-09-12T03:44:49.125Z,4.88
2018-09-12T03:45:24.245Z,4.48
2018-09-12T03:45:59.654Z,0.88
2018-09-12T03:46:35.000Z,4.32
2018-09-12T03:47:10.169Z,6.00
2018-09-12T03:47:45.372Z,10.65
2018-09-12T03:48:20.911Z,5.28
2018-09-12T03:48:56.236Z,7.28
2018-09-12T03:49:31.605Z,6.32
2018-09-12T03:50:06.920Z,6.72
2018-09-12T03:50:42.180Z,5.68
2018-09-12T03:51:17.742Z,3.84
2018-09-12T03:51:53.240Z,2.48
2018-09-12T03:52:28.732Z,0.96
2018-09-12T03:53:04.348Z,0.56
2018-09-12T03:53:39.571Z,0.32
2018-09-12T03:54:15.142Z,2.80
2018-09-12T03:54:50.453Z,3.76
2018-09-12T03:55:25.777Z,0.72
2018-09-12T03:56:01.221Z,8.56
2018-09-12T03:56:36.629Z,6.48
2018-09-12T03:57:12.168Z,4.00
2018-09-12T03:57:47.500Z,7.92
2018-09-12T03:58:22.919Z,6.32
2018-09-12T03:58:58.159Z,13.93
2018-09-12T03:59:33.378Z,4.64
2018-09-12T04:00:08.751Z,0.96
2018-09-12T04:00:44.260Z,2.24
2018-09-12T04:01:19.796Z,1.76
2018-09-12T04:01:55.296Z,3.44
2018-09-12T04:02:30.639Z,2.08
2018-09-12T04:03:06.200Z,6.00
2018-09-12T04:03:41.607Z,1.76
2018-09-12T04:04:16.850Z,3.52
2018-09-12T04:04:52.068Z,3.20
2018-09-12T04:05:27.509Z,0.96
2018-09-12T04:06:02.861Z,1.68
2018-09-12T04:06:38.597Z,3.04
2018-09-12T04:07:14.215Z,1.76
2018-09-12T04:07:49.638Z,0.88
2018-09-12T04:08:25.083Z,3.12
2018-09-12T04:09:00.469Z,3.52
2018-09-12T04:09:35.688Z,2.96
2018-09-12T04:10:11.200Z,3.20
2018-09-12T04:10:46.458Z,4.00
2018-09-12T04:11:21.774Z,1.92
2018-09-12T04:11:57.097Z,3.12
2018-09-12T04:12:32.524Z,4.40
2018-09-12T04:13:07.936Z,1.84
2018-09-12T04:13:43.287Z,1.36
2018-09-12T04:14:18.488Z,0.88
2018-09-12T04:14:53.716Z,0.48
2018-09-12T04:15:29.148Z,3.12
2018-09-12T04:16:04.476Z,3.68
2018-09-12T04:16:39.918Z,3.36
2018-09-12T04:17:15.524Z,3.52
2018-09-12T04:17:51.056Z,1.52
2018-09-12T04:18:26.375Z,1.12
2018-09-12T04:19:01.805Z,0.48
2018-09-12T04:19:37.246Z,0.00
2018-09-12T04:20:12.884Z,0.16
2018-09-12T04:20:48.073Z,2.40
2018-09-12T04:21:23.392Z,3.60
2018-09-12T04:21:58.724Z,1.28
2018-09-12T04:22:34.180Z,0.80
2018-09-12T04:23:09.480Z,2.80
2018-09-12T04:23:45.029Z,6.08
2018-09-12T04:24:20.498Z,3.84
2018-09-12T04:24:55.934Z,4.64
2018-09-12T04:25:31.158Z,2.72
2018-09-12T04:26:06.282Z,2.96
2018-09-12T04:26:41.540Z,2.80
2018-09-12T04:27:16.847Z,2.64
2018-09-12T04:27:52.201Z,2.40
2018-09-12T04:28:27.448Z,4.80
2018-09-12T04:29:02.671Z,3.52
2018-09-12T04:29:38.041Z,2.16
2018-09-12T04:30:13.255Z,2.00
2018-09-12T04:30:48.604Z,1.44
2018-09-12T04:31:23.936Z,2.56
2018-09-12T04:31:59.050Z,6.16
2018-09-12T04:32:34.385Z,5.60
2018-09-12T04:33:09.795Z,5.20
2018-09-12T04:33:45.015Z,4.24
2018-09-12T04:34:20.354Z,6.16
2018-09-12T04:34:55.910Z,1.84
2018-09-12T04:35:31.465Z,2.88
2018-09-12T04:36:06.861Z,1.68
2018-09-12T04:36:42.074Z,2.96
2018-09-12T04:37:17.397Z,2.48
2018-09-12T04:37:52.616Z,2.72
2018-09-12T04:38:28.337Z,2.00
2018-09-12T04:39:03.477Z,3.44
2018-09-12T04:39:38.922Z,5.28
2018-09-12T04:40:14.176Z,6.24
2018-09-12T04:40:49.607Z,8.80
2018-09-12T04:41:24.923Z,8.64
2018-09-12T04:42:00.224Z,5.76
2018-09-12T04:42:35.660Z,6.64
2018-09-12T04:43:10.955Z,6.00
2018-09-12T04:43:46.286Z,3.44
2018-09-12T04:44:21.500Z,3.84
2018-09-12T04:44:57.098Z,2.96
2018-09-12T04:45:32.260Z,4.32
2018-09-12T04:46:07.384Z,6.96
2018-09-12T04:46:42.922Z,5.60
2018-09-12T04:47:18.221Z,4.32
2018-09-12T04:47:53.540Z,5.36
2018-09-12T04:48:28.800Z,6.88
2018-09-12T04:49:04.076Z,5.04
2018-09-12T04:49:39.404Z,5.92
2018-09-12T04:50:14.840Z,2.08
2018-09-12T04:50:50.300Z,2.88
2018-09-12T04:51:25.821Z,1.92
2018-09-12T04:52:01.174Z,1.12
2018-09-12T04:52:36.703Z,2.88
2018-09-12T04:53:12.108Z,2.80
2018-09-12T04:53:47.349Z,1.60
2018-09-12T04:54:22.540Z,3.04
2018-09-12T04:54:57.996Z,0.96
2018-09-12T04:55:33.459Z,1.52
2018-09-12T04:56:08.888Z,4.88
2018-09-12T04:56:44.432Z,1.20
2018-09-12T04:57:20.053Z,2.08
2018-09-12T04:57:55.592Z,0.56
2018-09-12T04:58:31.383Z,0.56
2018-09-12T04:59:07.056Z,2.00
2018-09-12T04:59:42.503Z,3.84
2018-09-12T05:00:17.883Z,4.48
2018-09-12T05:00:53.566Z,3.76
2018-09-12T05:01:28.682Z,6.24
2018-09-12T05:02:03.909Z,5.04
2018-09-12T05:02:39.543Z,4.24
2018-09-12T05:03:14.837Z,3.44
2018-09-12T05:03:50.287Z,4.56
2018-09-12T05:04:25.751Z,4.24
2018-09-12T05:05:00.994Z,2.96
2018-09-12T05:05:36.205Z,4.48
2018-09-12T05:06:11.749Z,4.96
2018-09-12T05:06:47.082Z,4.00
2018-09-12T05:07:22.490Z,8.40
2018-09-12T05:07:57.918Z,6.72
2018-09-12T05:08:33.313Z,7.44
2018-09-12T05:09:08.863Z,4.56
2018-09-12T05:09:44.004Z,5.52
2018-09-12T05:10:19.475Z,3.44
2018-09-12T05:10:54.631Z,3.28
2018-09-12T05:11:30.004Z,4.64
2018-09-12T05:12:05.318Z,3.28
2018-09-12T05:12:40.770Z,3.84
2018-09-12T05:13:16.272Z,8.56
2018-09-12T05:13:51.499Z,7.04
2018-09-12T05:14:27.127Z,6.24
2018-09-12T05:15:02.562Z,6.32
2018-09-12T05:15:37.994Z,7.20
2018-09-12T05:16:13.307Z,4.16
2018-09-12T05:16:48.765Z,2.88
2018-09-12T05:17:23.993Z,6.00
2018-09-12T05:17:59.520Z,2.40
2018-09-12T05:18:34.855Z,3.36
2018-09-12T05:19:10.266Z,4.72
2018-09-12T05:19:45.708Z,4.64
2018-09-12T05:20:21.156Z,8.16
2018-09-12T05:20:56.400Z,7.68
2018-09-12T05:21:31.805Z,5.92
2018-09-12T05:22:07.092Z,3.84
2018-09-12T05:22:42.532Z,4.16
2018-09-12T05:23:17.825Z,3.76
2018-09-12T05:23:52.857Z,5.44
2018-09-12T05:24:28.353Z,5.20
2018-09-12T05:25:03.888Z,5.52
2018-09-12T05:25:39.120Z,7.20
2018-09-12T05:26:14.321Z,7.44
2018-09-12T05:26:49.554Z,7.92
2018-09-12T05:27:25.209Z,6.40
2018-09-12T05:28:00.727Z,7.28
2018-09-12T05:28:36.098Z,8.72
2018-09-12T05:29:11.272Z,6.00
2018-09-12T05:29:46.939Z,3.28
2018-09-12T05:30:22.383Z,8.16
2018-09-12T05:30:58.019Z,9.36
2018-09-12T05:31:33.213Z,4.80
2018-09-12T05:32:08.458Z,6.00
2018-09-12T05:32:43.925Z,12.41
2018-09-12T05:33:19.238Z,8.56
2018-09-12T05:33:54.681Z,5.04
2018-09-12T05:34:30.076Z,3.76
2018-09-12T05:35:05.509Z,4.72
2018-09-12T05:35:40.827Z,4.64
2018-09-12T05:36:16.465Z,2.80
2018-09-12T05:36:51.794Z,2.80
2018-09-12T05:37:27.194Z,6.88
2018-09-12T05:38:02.558Z,8.64
2018-09-12T05:38:38.278Z,7.68
2018-09-12T05:39:13.484Z,2.48
2018-09-12T05:39:48.628Z,0.80
2018-09-12T05:40:23.929Z,4.24
2018-09-12T05:40:59.576Z,7.76
2018-09-12T05:41:34.775Z,5.12
2018-09-12T05:42:10.192Z,4.24
2018-09-12T05:42:45.759Z,8.40
2018-09-12T05:43:21.934Z,7.84
2018-09-12T05:43:58.100Z,9.04
2018-09-12T05:44:33.543Z,8.64
2018-09-12T05:45:09.559Z,4.24
2018-09-12T05:45:45.053Z,9.84
2018-09-12T05:46:21.004Z,9.84
2018-09-12T05:46:56.539Z,7.84
2018-09-12T05:47:31.628Z,10.24
2018-09-12T05:48:06.972Z,4.32
2018-09-12T05:48:42.291Z,9.12
2018-09-12T05:49:17.979Z,6.48
2018-09-12T05:49:53.704Z,7.76
2018-09-12T05:50:29.507Z,5.92
2018-09-12T05:51:05.520Z,3.52
2018-09-12T05:51:41.127Z,2.32
2018-09-12T05:52:16.537Z,6.88
2018-09-12T05:52:51.721Z,6.16
2018-09-12T05:53:27.025Z,4.24
2018-09-12T05:54:02.494Z,6.16
2018-09-12T05:54:38.268Z,9.68
2018-09-12T05:55:13.819Z,7.20
2018-09-12T05:55:49.413Z,6.56
2018-09-12T05:56:25.102Z,6.40
2018-09-12T05:57:00.543Z,6.56
2018-09-12T05:57:36.097Z,8.72
2018-09-12T05:58:11.331Z,6.72
2018-09-12T05:58:46.811Z,7.52
2018-09-12T05:59:22.032Z,2.56
2018-09-12T05:59:57.820Z,5.44
2018-09-12T06:00:33.130Z,10.97
2018-09-12T06:01:08.624Z,8.80
2018-09-12T06:01:43.918Z,10.81
2018-09-12T06:02:19.219Z,7.52
2018-09-12T06:02:54.650Z,3.20
2018-09-12T06:03:30.249Z,5.28
2018-09-12T06:04:05.636Z,4.88
2018-09-12T06:04:41.370Z,5.68
2018-09-12T06:05:17.093Z,9.20
2018-09-12T06:05:52.745Z,5.84
2018-09-12T06:06:28.356Z,5.76
2018-09-12T06:07:04.361Z,6.08
2018-09-12T06:07:40.352Z,8.00
2018-09-12T06:08:15.604Z,6.08
2018-09-12T06:08:50.894Z,9.44
2018-09-12T06:09:26.129Z,8.64
2018-09-12T06:10:01.606Z,10.24
2018-09-12T06:10:37.983Z,8.88
2018-09-12T06:11:13.365Z,7.52
2018-09-12T06:11:49.051Z,7.44
2018-09-12T06:12:24.731Z,7.60
2018-09-12T06:13:00.675Z,6.72
2018-09-12T06:13:36.161Z,7.12
2018-09-12T06:14:11.589Z,5.20
2018-09-12T06:14:47.290Z,6.72
2018-09-12T06:15:22.817Z,8.00
2018-09-12T06:15:58.360Z,4.16
2018-09-12T06:16:33.675Z,2.16
2018-09-12T06:17:09.530Z,2.48
2018-09-12T06:17:45.008Z,6.08
2018-09-12T06:18:20.524Z,6.24
2018-09-12T06:18:55.948Z,5.60
2018-09-12T06:19:31.535Z,4.56
2018-09-12T06:20:06.831Z,4.96
2018-09-12T06:20:42.273Z,6.08
2018-09-12T06:21:17.729Z,4.00
2018-09-12T06:21:52.917Z,7.28
2018-09-12T06:22:28.231Z,5.84
2018-09-12T06:23:03.899Z,4.32
2018-09-12T06:23:39.384Z,2.80
2018-09-12T06:24:14.928Z,4.88
2018-09-12T06:24:50.414Z,6.56
2018-09-12T06:25:25.732Z,6.88
2018-09-12T06:26:01.604Z,5.84
2018-09-12T06:26:37.311Z,7.04
2018-09-12T06:27:12.901Z,7.52
2018-09-12T06:27:48.483Z,6.08
2018-09-12T06:28:24.266Z,4.80
2018-09-12T06:29:00.038Z,5.60
2018-09-12T06:29:36.326Z,3.36
2018-09-12T06:30:11.946Z,2.16
2018-09-12T06:30:47.388Z,6.72
2018-09-12T06:31:23.555Z,12.57
2018-09-12T06:31:58.878Z,6.56
2018-09-12T06:32:35.398Z,4.80
2018-09-12T06:33:10.710Z,0.80
2018-09-12T06:33:46.110Z,1.52
2018-09-12T06:34:21.454Z,4.80
2018-09-12T06:34:56.874Z,3.92
2018-09-12T06:35:32.262Z,2.32
2018-09-12T06:36:07.828Z,3.92
2018-09-12T06:36:43.438Z,4.16
2018-09-12T06:37:18.731Z,5.44
2018-09-12T06:37:54.238Z,9.60
2018-09-12T06:38:30.044Z,7.20
2018-09-12T06:39:05.436Z,8.96
2018-09-12T06:39:40.652Z,5.12
2018-09-12T06:40:16.178Z,10.65
2018-09-12T06:40:51.397Z,10.00
2018-09-12T06:41:26.592Z,4.64
2018-09-12T06:42:02.681Z,7.20
2018-09-12T06:42:37.981Z,9.44
2018-09-12T06:43:13.565Z,7.36
2018-09-12T06:43:49.291Z,6.88
2018-09-12T06:44:24.651Z,4.32
2018-09-12T06:45:00.178Z,4.80
2018-09-12T06:45:35.773Z,6.56
2018-09-12T06:46:10.979Z,6.08
2018-09-12T06:46:46.450Z,8.64
2018-09-12T06:47:21.958Z,7.68
2018-09-12T06:47:57.408Z,6.16
2018-09-12T06:48:32.940Z,3.52
2018-09-12T06:49:08.627Z,5.20
2018-09-12T06:49:44.290Z,5.44
2018-09-12T06:50:19.968Z,7.44
2018-09-12T06:50:56.220Z,9.52
2018-09-12T06:51:31.603Z,6.56
2018-09-12T06:52:07.283Z,8.24
2018-09-12T06:52:42.725Z,12.01
2018-09-12T06:53:18.073Z,11.85
2018-09-12T06:53:53.357Z,6.24
2018-09-12T06:54:28.804Z,7.36
2018-09-12T06:55:03.992Z,5.44
2018-09-12T06:55:40.344Z,7.36
2018-09-12T06:56:16.402Z,6.32
2018-09-12T06:56:51.620Z,6.40
2018-09-12T06:57:27.019Z,9.12
2018-09-12T06:58:02.542Z,6.16
2018-09-12T06:58:37.809Z,7.92
2018-09-12T06:59:13.145Z,9.36
2018-09-12T06:59:48.332Z,6.32
2018-09-12T07:00:23.610Z,10.32
2018-09-12T07:00:58.730Z,9.52
2018-09-12T07:01:34.070Z,8.00
2018-09-12T07:02:09.446Z,9.52
2018-09-12T07:02:44.861Z,8.32
2018-09-12T07:03:20.556Z,6.48
2018-09-12T07:03:55.809Z,5.04
2018-09-12T07:04:31.113Z,5.60
2018-09-12T07:05:06.760Z,5.60
2018-09-12T07:05:41.989Z,3.04
2018-09-12T07:06:17.401Z,3.44
2018-09-12T07:06:52.741Z,7.04
2018-09-12T07:07:28.159Z,6.80
2018-09-12T07:08:03.677Z,5.52
2018-09-12T07:08:38.995Z,6.00
2018-09-12T07:09:14.217Z,4.48
2018-09-12T07:09:49.307Z,5.20
2018-09-12T07:10:24.565Z,3.52
2018-09-12T07:10:59.559Z,3.12
2018-09-12T07:11:35.142Z,3.76
2018-09-12T07:12:10.899Z,3.68
2018-09-12T07:12:46.124Z,6.24
2018-09-12T07:13:21.612Z,4.96
2018-09-12T07:13:56.859Z,6.00
2018-09-12T07:14:32.161Z,9.60
2018-09-12T07:15:07.573Z,9.36
2018-09-12T07:15:43.022Z,6.48
2018-09-12T07:16:18.537Z,7.52
2018-09-12T07:16:53.822Z,5.36
2018-09-12T07:17:29.569Z,6.40
2018-09-12T07:18:04.978Z,10.08
2018-09-12T07:18:40.406Z,6.96
2018-09-12T07:19:15.722Z,8.72
2018-09-12T07:19:51.169Z,10.89
2018-09-12T07:20:26.381Z,6.32
2018-09-12T07:21:01.892Z,4.40
2018-09-12T07:21:37.193Z,6.64
2018-09-12T07:22:12.654Z,5.84
2018-09-12T07:22:47.842Z,9.28
2018-09-12T07:23:23.312Z,9.84
2018-09-12T07:23:58.609Z,8.72
2018-09-12T07:24:34.064Z,8.24
2018-09-12T07:25:09.326Z,11.69
2018-09-12T07:25:44.605Z,8.88
2018-09-12T07:26:20.050Z,7.60
2018-09-12T07:26:55.336Z,6.64
2018-09-12T07:27:30.963Z,7.52
2018-09-12T07:28:06.402Z,5.20
2018-09-12T07:28:41.694Z,7.44
2018-09-12T07:29:17.138Z,5.76
2018-09-12T07:29:52.513Z,6.88
2018-09-12T07:30:27.883Z,12.81
2018-09-12T07:31:03.440Z,7.04
2018-09-12T07:31:39.189Z,10.96
2018-09-12T07:32:14.556Z,7.84
2018-09-12T07:32:50.078Z,7.68
2018-09-12T07:33:25.834Z,9.68
2018-09-12T07:34:01.326Z,6.08
2018-09-12T07:34:37.013Z,13.05
2018-09-12T07:35:12.345Z,7.04
2018-09-12T07:35:47.810Z,10.48
2018-09-12T07:36:23.054Z,10.65
2018-09-12T07:36:58.270Z,11.29
2018-09-12T07:37:33.433Z,27.21
2018-09-12T07:38:08.823Z,20.41
2018-09-12T07:38:44.058Z,14.57
2018-09-12T07:39:19.508Z,17.05
2018-09-12T07:39:54.629Z,13.21
2018-09-12T07:40:30.059Z,11.77
2018-09-12T07:41:05.413Z,17.13
2018-09-12T07:41:40.688Z,21.45
2018-09-12T07:42:15.937Z,10.81
2018-09-12T07:42:51.361Z,6.24
2018-09-12T07:43:26.784Z,16.49
2018-09-12T07:44:02.126Z,11.69
2018-09-12T07:44:37.652Z,13.05
2018-09-12T07:45:13.001Z,18.97
2018-09-12T07:45:48.321Z,18.89
2018-09-12T07:46:23.658Z,13.85
2018-09-12T07:46:59.166Z,14.65
2018-09-12T07:47:34.348Z,22.97
2018-09-12T07:48:09.811Z,13.45
2018-09-12T07:48:45.160Z,12.65
2018-09-12T07:49:20.501Z,8.00
2018-09-12T07:49:55.986Z,9.20
2018-09-12T07:50:31.502Z,8.72